createdAt,value
2019-02-27T00:04:39.856Z,102248
2019-02-27T00:10:05.817Z,102241
2019-02-27T00:15:25.425Z,102234
2019-02-27T00:20:48.189Z,102234
2019-02-27T00:26:11.043Z,102229
2019-02-27T00:31:33.686Z,102218
2019-02-27T00:36:57.389Z,102213
2019-02-27T00:42:22.322Z,102212
2019-02-27T00:47:43.734Z,102218
2019-02-27T00:53:06.507Z,102207
2019-02-27T00:58:29.230Z,102195
2019-02-27T01:03:51.935Z,102184
2019-02-27T01:09:16.005Z,102180
2019-02-27T01:14:38.684Z,102184
2019-02-27T01:20:02.132Z,102177
2019-02-27T01:25:24.807Z,102169
2019-02-27T01:30:47.478Z,102166
2019-02-27T01:36:10.344Z,102160
2019-02-27T01:41:33.080Z,102148
2019-02-27T01:46:55.788Z,102138
2019-02-27T01:52:19.419Z,102127
2019-02-27T01:57:42.150Z,102128
2019-02-27T02:03:05.217Z,102121
2019-02-27T02:08:29.879Z,102111
2019-02-27T02:13:52.718Z,102109
2019-02-27T02:19:15.588Z,102097
2019-02-27T02:24:39.243Z,102089
2019-02-27T02:30:02.914Z,102080
2019-02-27T02:35:25.559Z,102071
2019-02-27T02:40:48.392Z,102068
2019-02-27T02:46:11.007Z,102058
2019-02-27T02:51:33.781Z,102054
2019-02-27T02:56:59.983Z,102050
2019-02-27T03:02:23.386Z,102041
2019-02-27T03:07:44.675Z,102034
2019-02-27T03:13:07.020Z,102022
2019-02-27T03:18:29.469Z,102011
2019-02-27T03:23:52.013Z,102006
2019-02-27T03:29:16.787Z,102000
2019-02-27T03:34:47.810Z,101995
2019-02-27T03:40:00.373Z,101986
2019-02-27T03:45:23.958Z,101987
2019-02-27T03:50:49.857Z,101983
2019-02-27T03:56:11.232Z,101974
2019-02-27T04:01:34.409Z,101974
2019-02-27T04:06:57.252Z,101974
2019-02-27T04:12:20.194Z,101971
2019-02-27T04:17:43.210Z,101966
2019-02-27T04:23:11.146Z,101968
2019-02-27T04:28:31.182Z,101968
2019-02-27T04:33:53.874Z,101970
2019-02-27T04:39:17.694Z,101960
2019-02-27T04:44:40.301Z,101957
2019-02-27T04:50:03.021Z,101956
2019-02-27T04:55:26.720Z,101953
2019-02-27T05:00:49.343Z,101949
2019-02-27T05:06:14.381Z,101945
2019-02-27T05:11:35.017Z,101940
2019-02-27T05:16:59.585Z,101937
2019-02-27T05:22:20.948Z,101931
2019-02-27T05:27:44.647Z,101925
2019-02-27T05:33:07.474Z,101930
2019-02-27T05:38:30.171Z,101935
2019-02-27T05:43:52.856Z,101945
2019-02-27T05:49:15.850Z,101952
2019-02-27T05:54:38.636Z,101956
2019-02-27T06:00:02.535Z,101951
2019-02-27T06:05:25.010Z,101939
2019-02-27T06:10:47.681Z,101934
2019-02-27T06:16:11.404Z,101942
2019-02-27T06:21:34.132Z,101933
2019-02-27T06:26:57.978Z,101935
2019-02-27T06:32:21.966Z,101932
2019-02-27T06:37:44.804Z,101928
2019-02-27T06:43:08.438Z,101917
2019-02-27T06:48:31.921Z,101912
2019-02-27T06:53:54.610Z,101910
2019-02-27T06:59:18.042Z,101912
2019-02-27T07:04:40.893Z,101913
2019-02-27T07:10:03.618Z,101908
2019-02-27T07:15:26.654Z,101903
2019-02-27T07:20:50.429Z,101899
2019-02-27T07:26:15.788Z,101902
2019-02-27T07:31:36.867Z,101899
2019-02-27T07:37:00.494Z,101897
2019-02-27T07:42:23.305Z,101898
2019-02-27T07:47:47.018Z,101900
2019-02-27T07:53:10.432Z,101898
2019-02-27T07:58:35.718Z,101901
2019-02-27T08:03:58.362Z,101900
2019-02-27T08:09:20.993Z,101896
2019-02-27T08:14:45.736Z,101897
2019-02-27T08:20:08.820Z,101885
2019-02-27T08:25:31.578Z,101876
2019-02-27T08:30:55.462Z,101865
2019-02-27T08:36:18.135Z,101856
2019-02-27T08:41:40.747Z,101860
2019-02-27T08:47:04.230Z,101858
2019-02-27T08:52:27.145Z,101850
2019-02-27T08:57:53.245Z,101851
2019-02-27T09:03:20.156Z,101852
2019-02-27T09:08:37.614Z,101844
2019-02-27T09:14:01.256Z,101847
2019-02-27T09:19:23.942Z,101840
2019-02-27T09:24:46.654Z,101833
2019-02-27T09:30:09.289Z,101824
2019-02-27T09:35:33.318Z,101819
2019-02-27T09:40:55.653Z,101814
2019-02-27T09:46:19.438Z,101821
2019-02-27T09:51:41.150Z,101809
2019-02-27T09:57:03.817Z,101815
2019-02-27T10:02:26.465Z,101795
2019-02-27T10:07:51.252Z,101805
2019-02-27T10:13:11.734Z,101806
2019-02-27T10:18:34.484Z,101794
2019-02-27T10:23:57.101Z,101793
2019-02-27T10:29:21.727Z,101777
2019-02-27T10:34:44.407Z,101774
2019-02-27T10:40:08.721Z,101771
2019-02-27T10:45:30.724Z,101766
2019-02-27T10:50:53.364Z,101748
2019-02-27T10:56:16.099Z,101741
2019-02-27T11:01:39.779Z,101739
2019-02-27T11:07:02.589Z,101733
2019-02-27T11:12:26.806Z,101721
2019-02-27T11:17:48.589Z,101721
2019-02-27T11:23:11.227Z,101703
2019-02-27T11:28:33.875Z,101694
2019-02-27T11:33:56.747Z,101683
2019-02-27T11:39:19.468Z,101668
2019-02-27T11:44:42.274Z,101659
2019-02-27T11:50:05.892Z,101651
2019-02-27T11:55:28.555Z,101639
2019-02-27T12:00:51.192Z,101629
2019-02-27T12:06:13.869Z,101625
2019-02-27T12:11:36.493Z,101608
2019-02-27T12:16:59.105Z,101597
2019-02-27T12:22:21.668Z,101599
2019-02-27T12:27:48.882Z,101584
2019-02-27T12:33:07.911Z,101580
2019-02-27T12:38:31.430Z,101571
2019-02-27T12:43:54.062Z,101567
2019-02-27T12:49:16.855Z,101554
2019-02-27T12:54:39.382Z,101535
2019-02-27T13:00:01.984Z,101530
2019-02-27T13:05:27.245Z,101523
2019-02-27T13:10:48.726Z,101509
2019-02-27T13:16:14.197Z,101509
2019-02-27T13:21:33.850Z,101504
2019-02-27T13:26:57.046Z,101499
2019-02-27T13:32:19.773Z,101480
2019-02-27T13:37:44.492Z,101474
2019-02-27T13:43:06.011Z,101464
2019-02-27T13:48:28.806Z,101461
2019-02-27T13:53:51.363Z,101453
2019-02-27T13:59:15.683Z,101441
2019-02-27T14:04:38.363Z,101431
2019-02-27T14:10:00.986Z,101423
2019-02-27T14:15:26.717Z,101416
2019-02-27T14:20:46.306Z,101397
2019-02-27T14:26:09.175Z,101394
2019-02-27T14:31:31.527Z,101387
2019-02-27T14:36:54.137Z,101383
2019-02-27T14:42:16.822Z,101381
2019-02-27T14:47:39.406Z,101378
2019-02-27T14:53:02.117Z,101372
2019-02-27T14:58:25.058Z,101362
2019-02-27T15:03:47.351Z,101346
2019-02-27T15:09:09.950Z,101344
2019-02-27T15:14:32.577Z,101333
2019-02-27T15:19:56.814Z,101326
2019-02-27T15:25:20.427Z,101320
2019-02-27T15:30:46.308Z,101304
2019-02-27T15:36:05.805Z,101290
2019-02-27T15:41:28.429Z,101289
2019-02-27T15:46:53.395Z,101272
2019-02-27T15:52:14.615Z,101266
2019-02-27T15:57:37.937Z,101256
2019-02-27T16:03:00.535Z,101253
2019-02-27T16:08:25.940Z,101256
2019-02-27T16:13:46.695Z,101245
2019-02-27T16:19:12.966Z,101240
2019-02-27T16:24:35.626Z,101219
2019-02-27T16:29:59.463Z,101208
2019-02-27T16:35:22.237Z,101200
2019-02-27T16:40:45.191Z,101188
2019-02-27T16:46:09.166Z,101188
2019-02-27T16:51:34.666Z,101187
2019-02-27T16:56:57.908Z,101180
2019-02-27T17:02:20.030Z,101175
2019-02-27T17:07:43.801Z,101172
2019-02-27T17:13:05.871Z,101172
2019-02-27T17:18:29.691Z,101161
2019-02-27T17:23:52.385Z,101155
2019-02-27T17:29:15.086Z,101147
2019-02-27T17:34:38.472Z,101139
2019-02-27T17:40:03.127Z,101126
2019-02-27T17:45:25.636Z,101120
2019-02-27T17:50:48.488Z,101118
2019-02-27T17:56:15.179Z,101113
2019-02-27T18:01:33.950Z,101104
2019-02-27T18:06:58.714Z,101100
2019-02-27T18:12:21.452Z,101092
2019-02-27T18:17:43.389Z,101085
2019-02-27T18:23:06.062Z,101076
2019-02-27T18:28:32.629Z,101067
2019-02-27T18:33:51.367Z,101060
2019-02-27T18:39:14.968Z,101060
2019-02-27T18:44:38.228Z,101058
2019-02-27T18:50:00.575Z,101061
2019-02-27T18:55:23.242Z,101058
2019-02-27T19:00:47.050Z,101050
2019-02-27T19:06:11.980Z,101045
2019-02-27T19:11:32.467Z,101047
2019-02-27T19:16:55.921Z,101042
2019-02-27T19:22:17.900Z,101036
2019-02-27T19:27:40.581Z,101036
2019-02-27T19:33:03.962Z,101034
2019-02-27T19:38:26.582Z,101035
2019-02-27T19:43:49.315Z,101034
2019-02-27T19:49:13.084Z,101026
2019-02-27T19:54:36.451Z,101024
2019-02-27T20:00:00.090Z,101020
2019-02-27T20:05:22.798Z,101018
2019-02-27T20:10:46.349Z,101020
2019-02-27T20:16:08.986Z,101016
2019-02-27T20:21:31.715Z,101019
2019-02-27T20:26:55.386Z,101013
2019-02-27T20:32:18.118Z,101004
2019-02-27T20:37:41.360Z,100997
2019-02-27T20:43:04.412Z,100994
2019-02-27T20:48:27.053Z,100979
2019-02-27T20:53:52.529Z,100971
2019-02-27T20:59:13.772Z,100960
2019-02-27T21:04:36.680Z,100961
2019-02-27T21:09:59.393Z,100950
2019-02-27T21:15:22.222Z,100946
2019-02-27T21:20:46.212Z,100939
2019-02-27T21:26:09.492Z,100934
2019-02-27T21:31:32.156Z,100928
2019-02-27T21:36:55.142Z,100924
2019-02-27T21:42:19.292Z,100920
2019-02-27T21:47:40.553Z,100920
2019-02-27T21:53:03.196Z,100912
2019-02-27T21:58:26.056Z,100905
2019-02-27T22:03:49.881Z,100905
2019-02-27T22:09:13.451Z,100903
2019-02-27T22:14:36.552Z,100904
2019-02-27T22:19:59.314Z,100902
2019-02-27T22:25:21.963Z,100897
2019-02-27T22:30:45.793Z,100895
2019-02-27T22:36:12.261Z,100889
2019-02-27T22:41:31.247Z,100887
2019-02-27T22:46:55.017Z,100883
2019-02-27T22:52:19.178Z,100880
2019-02-27T22:57:40.508Z,100873
2019-02-27T23:03:04.052Z,100871
2019-02-27T23:08:26.747Z,100856
2019-02-27T23:13:49.473Z,100863
2019-02-27T23:19:13.215Z,100865
2019-02-27T23:24:36.226Z,100866
2019-02-27T23:29:59.826Z,100861
2019-02-27T23:35:22.660Z,100857
2019-02-27T23:40:48.213Z,100849
2019-02-27T23:46:08.079Z,100847
2019-02-27T23:51:30.742Z,100839
2019-02-27T23:56:53.454Z,100840
